createdAt,value
2023-05-12T00:01:57.331Z,101142.47
2023-05-12T00:04:23.665Z,101134.41
2023-05-12T00:06:49.954Z,101136.75
2023-05-12T00:09:16.370Z,101132.97
2023-05-12T00:11:43.877Z,101139.44
2023-05-12T00:14:10.108Z,101138.59
2023-05-12T00:16:36.464Z,101132.16
2023-05-12T00:19:02.826Z,101132.75
2023-05-12T00:21:29.127Z,101134.88
2023-05-12T00:23:55.385Z,101138.59
2023-05-12T00:26:21.669Z,101134.88
2023-05-12T00:28:47.903Z,101136.75
2023-05-12T00:31:14.184Z,101132.16
2023-05-12T00:33:40.517Z,101131.56
2023-05-12T00:36:08.071Z,101135.91
2023-05-12T00:38:35.517Z,101135.56
2023-05-12T00:41:01.947Z,101136.97
2023-05-12T00:43:28.201Z,101138.03
2023-05-12T00:45:54.607Z,101139.34
2023-05-12T00:48:30.862Z,101138.03
2023-05-12T00:50:57.998Z,101143.22
2023-05-12T00:53:24.399Z,101138.03
2023-05-12T00:55:50.671Z,101140.97
2023-05-12T00:58:19.430Z,101137.19
2023-05-12T01:00:46.180Z,101138.88
2023-05-12T01:03:15.342Z,101143.09
2023-05-12T01:05:41.695Z,101142.59
2023-05-12T01:08:10.611Z,101137.47
2023-05-12T01:10:37.480Z,101144.50
2023-05-12T01:13:03.839Z,101147.19
2023-05-12T01:15:30.094Z,101142.03
2023-05-12T01:17:57.891Z,101146.13
2023-05-12T01:20:24.181Z,101153.06
2023-05-12T01:22:50.445Z,101155.75
2023-05-12T01:25:16.703Z,101148.25
2023-05-12T01:27:42.985Z,101152.84
2023-05-12T01:30:09.224Z,101153.28
2023-05-12T01:32:35.698Z,101153.06
2023-05-12T01:35:02.473Z,101153.91
2023-05-12T01:37:28.736Z,101152.22
2023-05-12T01:39:55.049Z,101153.53
2023-05-12T01:42:22.812Z,101161.16
2023-05-12T01:44:49.060Z,101156.81
2023-05-12T01:47:17.074Z,101162.22
2023-05-12T01:49:43.411Z,101159.19
2023-05-12T01:52:11.233Z,101166.47
2023-05-12T01:54:37.476Z,101167.03
2023-05-12T01:57:03.749Z,101170.78
2023-05-12T01:59:30.297Z,101170.44
2023-05-12T02:01:56.581Z,101168.56
2023-05-12T02:04:23.492Z,101169.38
2023-05-12T02:06:49.772Z,101170.22
2023-05-12T02:09:16.149Z,101170.91
2023-05-12T02:11:42.417Z,101182.06
2023-05-12T02:14:08.687Z,101181.47
2023-05-12T02:16:37.066Z,101177.13
2023-05-12T02:19:05.875Z,101176.31
2023-05-12T02:21:33.946Z,101179.84
2023-05-12T02:24:00.208Z,101180.88
2023-05-12T02:26:26.721Z,101182.78
2023-05-12T02:28:53.414Z,101186.28
2023-05-12T02:31:21.271Z,101183.56
2023-05-12T02:33:47.559Z,101183.56
2023-05-12T02:36:13.817Z,101175.72
2023-05-12T02:38:40.059Z,101188.97
2023-05-12T02:41:06.303Z,101181.72
2023-05-12T02:43:32.794Z,101180.63
2023-05-12T02:45:59.339Z,101179.00
2023-05-12T02:48:26.412Z,101177.03
2023-05-12T02:50:53.041Z,101181.38
2023-05-12T02:53:20.546Z,101180.31
2023-05-12T02:55:46.818Z,101181.59
2023-05-12T02:58:13.084Z,101179.22
2023-05-12T03:00:39.384Z,101181.59
2023-05-12T03:03:05.709Z,101173.25
2023-05-12T03:05:32.136Z,101178.91
2023-05-12T03:07:59.967Z,101182.66
2023-05-12T03:10:26.317Z,101187.00
2023-05-12T03:12:52.582Z,101188.63
2023-05-12T03:15:18.808Z,101193.69
2023-05-12T03:17:45.981Z,101192.63
2023-05-12T03:20:12.336Z,101192.63
2023-05-12T03:22:39.755Z,101189.91
2023-05-12T03:25:06.007Z,101192.03
2023-05-12T03:27:32.233Z,101199.09
2023-05-12T03:29:58.497Z,101195.78
2023-05-12T03:32:27.449Z,101190.97
2023-05-12T03:34:53.775Z,101194.75
2023-05-12T03:37:19.998Z,101192.03
2023-05-12T03:39:46.506Z,101195.78
2023-05-12T03:42:12.835Z,101190.38
2023-05-12T03:44:40.036Z,101192.28
2023-05-12T03:47:06.366Z,101190.59
2023-05-12T03:49:34.001Z,101189.81
2023-05-12T03:52:00.253Z,101187.91
2023-05-12T03:54:26.665Z,101188.50
2023-05-12T03:56:52.936Z,101193.31
2023-05-12T03:59:19.189Z,101196.00
2023-05-12T04:01:46.097Z,101190.59
2023-05-12T04:04:12.429Z,101191.44
2023-05-12T04:06:38.742Z,101196.25
2023-05-12T04:09:04.975Z,101199.19
2023-05-12T04:11:31.668Z,101200.00
2023-05-12T04:13:57.901Z,101211.63
2023-05-12T04:16:24.293Z,101209.16
2023-05-12T04:18:50.650Z,101211.84
2023-05-12T04:21:18.583Z,101203.97
2023-05-12T04:23:45.066Z,101209.38
2023-05-12T04:26:11.341Z,101212.09
2023-05-12T04:28:37.664Z,101215.63
2023-05-12T04:31:13.883Z,101221.47
2023-05-12T04:33:41.611Z,101225.81
2023-05-12T04:36:10.211Z,101226.63
2023-05-12T04:38:36.453Z,101224.16
2023-05-12T04:41:02.720Z,101226.88
2023-05-12T04:46:00.483Z,101225.81
2023-05-12T04:48:26.891Z,101227.94
2023-05-12T04:50:53.306Z,101234.16
2023-05-12T04:53:19.556Z,101227.94
2023-05-12T04:55:45.806Z,101232.25
2023-05-12T04:58:12.061Z,101227.09
2023-05-12T05:00:39.049Z,101236.03
2023-05-12T05:03:05.390Z,101232.88
2023-05-12T05:05:31.661Z,101233.56
2023-05-12T05:07:57.908Z,101231.09
2023-05-12T05:10:24.149Z,101229.22
2023-05-12T05:12:50.452Z,101241.88
2023-05-12T05:15:16.786Z,101236.47
2023-05-12T05:17:45.852Z,101235.44
2023-05-12T05:20:12.779Z,101237.31
2023-05-12T05:22:41.596Z,101249.97
2023-05-12T05:25:09.517Z,101234.63
2023-05-12T05:27:35.802Z,101240.00
2023-05-12T05:30:02.198Z,101240.00
2023-05-12T05:32:28.501Z,101237.09
2023-05-12T05:34:54.837Z,101240.84
2023-05-12T05:37:21.132Z,101232.75
2023-05-12T05:39:47.554Z,101247.88
2023-05-12T05:42:13.795Z,101244.94
2023-05-12T05:44:40.050Z,101247.66
2023-05-12T05:47:06.419Z,101259.84
2023-05-12T05:49:33.068Z,101245.31
2023-05-12T05:52:02.099Z,101247.16
2023-05-12T05:54:28.352Z,101256.31
2023-05-12T05:56:54.568Z,101254.22
2023-05-12T05:59:20.827Z,101253.63
2023-05-12T06:01:49.112Z,101261.72
2023-05-12T06:04:15.468Z,101261.50
2023-05-12T06:06:41.775Z,101254.81
2023-05-12T06:09:08.103Z,101257.16
2023-05-12T06:11:34.581Z,101262.78
2023-05-12T06:14:00.830Z,101255.03
2023-05-12T06:16:27.181Z,101259.03
2023-05-12T06:18:54.511Z,101259.25
2023-05-12T06:21:20.885Z,101262.31
2023-05-12T06:23:47.864Z,101253.63
2023-05-12T06:26:17.335Z,101262.56
2023-05-12T06:28:43.577Z,101265.25
2023-05-12T06:31:10.690Z,101265.03
2023-05-12T06:33:36.964Z,101265.84
2023-05-12T06:36:03.257Z,101256.94
2023-05-12T06:38:29.513Z,101263.47
2023-05-12T06:40:58.480Z,101260.78
2023-05-12T06:43:26.662Z,101264.78
2023-05-12T06:45:52.973Z,101261.03
2023-05-12T06:48:19.307Z,101269.13
2023-05-12T06:50:45.600Z,101271.84
2023-05-12T06:53:11.908Z,101272.41
2023-05-12T06:55:38.184Z,101269.94
2023-05-12T06:58:04.444Z,101263.97
2023-05-12T07:00:33.239Z,101267.47
2023-05-12T07:02:59.568Z,101257.28
2023-05-12T07:05:26.024Z,101253.53
2023-05-12T07:07:52.274Z,101257.06
2023-05-12T07:10:20.369Z,101259.75
2023-05-12T07:12:46.606Z,101259.97
2023-05-12T07:15:13.341Z,101260.78
2023-05-12T07:17:39.670Z,101248.97
2023-05-12T07:20:05.953Z,101242.94
2023-05-12T07:22:32.989Z,101256.00
2023-05-12T07:24:59.348Z,101261.38
2023-05-12T07:27:27.001Z,101258.69
2023-05-12T07:29:53.332Z,101255.38
2023-05-12T07:32:19.577Z,101265.94
2023-05-12T07:34:45.834Z,101260.44
2023-05-12T07:37:12.144Z,101256.09
2023-05-12T07:39:38.415Z,101258.69
2023-05-12T07:42:04.941Z,101260.56
2023-05-12T07:44:31.647Z,101256.00
2023-05-12T07:46:57.982Z,101250.81
2023-05-12T07:49:24.574Z,101262.44
2023-05-12T07:51:53.081Z,101263.25
2023-05-12T07:54:19.388Z,101261.38
2023-05-12T07:56:45.643Z,101260.56
2023-05-12T07:59:11.859Z,101267.00
2023-05-12T08:01:38.197Z,101261.38
2023-05-12T08:04:04.533Z,101263.03
2023-05-12T08:06:31.075Z,101270.56
2023-05-12T08:08:57.986Z,101262.44
2023-05-12T08:11:24.325Z,101259.38
2023-05-12T08:13:50.715Z,101262.22
2023-05-12T08:16:16.977Z,101272.53
2023-05-12T08:18:43.223Z,101259.75
2023-05-12T08:21:09.561Z,101268.19
2023-05-12T08:23:35.808Z,101258.91
2023-05-12T08:26:02.104Z,101259.25
2023-05-12T08:28:30.221Z,101260.94
2023-05-12T08:30:56.591Z,101267.97
2023-05-12T08:33:22.937Z,101264.66
2023-05-12T08:35:49.194Z,101258.00
2023-05-12T08:38:15.500Z,101264.44
2023-05-12T08:40:42.720Z,101261.16
2023-05-12T08:43:08.932Z,101260.72
2023-05-12T08:45:35.404Z,101269.03
2023-05-12T08:48:02.501Z,101275.22
2023-05-12T08:50:28.766Z,101266.09
2023-05-12T08:52:55.450Z,101259.88
2023-05-12T08:55:22.701Z,101273.13
2023-05-12T08:57:50.090Z,101269.25
2023-05-12T09:00:16.385Z,101272.53
2023-05-12T09:02:53.067Z,101259.66
2023-05-12T09:05:22.524Z,101264.22
2023-05-12T09:07:50.487Z,101267.13
2023-05-12T09:10:29.892Z,101261.72
2023-05-12T09:12:59.595Z,101258.00
2023-05-12T09:15:25.932Z,101262.34
2023-05-12T09:17:53.749Z,101265.28
2023-05-12T09:20:30.794Z,101255.03
2023-05-12T09:22:59.198Z,101252.59
2023-05-12T09:25:25.436Z,101251.78
2023-05-12T09:27:51.702Z,101260.44
2023-05-12T09:30:17.944Z,101259.66
2023-05-12T09:32:44.274Z,101254.47
2023-05-12T09:35:10.590Z,101259.66
2023-05-12T09:37:37.398Z,101258.34
2023-05-12T09:40:03.695Z,101256.72
2023-05-12T09:42:29.952Z,101253.19
2023-05-12T09:44:56.399Z,101245.66
2023-05-12T09:47:22.768Z,101256.72
2023-05-12T09:49:49.070Z,101243.78
2023-05-12T09:52:15.421Z,101255.66
2023-05-12T09:54:41.665Z,101257.75
2023-05-12T09:57:08.148Z,101261.28
2023-05-12T09:59:34.523Z,101255.03
2023-05-12T10:02:00.952Z,101253.75
2023-05-12T10:04:27.267Z,101253.75
2023-05-12T10:06:53.568Z,101256.72
2023-05-12T10:09:19.926Z,101252.13
2023-05-12T10:11:46.238Z,101242.97
2023-05-12T10:14:12.480Z,101244.03
2023-05-12T10:16:38.965Z,101237.56
2023-05-12T10:19:05.366Z,101240.25
2023-05-12T10:21:31.693Z,101242.16
2023-05-12T10:23:57.942Z,101240.25
2023-05-12T10:26:24.177Z,101235.94
2023-05-12T10:28:50.565Z,101228.88
2023-05-12T10:31:17.465Z,101230.53
2023-05-12T10:33:43.901Z,101228.44
2023-05-12T10:36:10.781Z,101230.28
2023-05-12T10:38:37.053Z,101226.75
2023-05-12T10:41:03.431Z,101222.44
2023-05-12T10:43:30.161Z,101223.03
2023-05-12T10:45:59.382Z,101231.13
2023-05-12T10:48:25.942Z,101227.59
2023-05-12T10:50:52.199Z,101233.00
2023-05-12T10:53:18.536Z,101217.63
2023-05-12T10:55:50.284Z,101216.81
2023-05-12T10:58:17.261Z,101230.53
2023-05-12T11:00:44.359Z,101228.44
2023-05-12T11:03:11.768Z,101230.28
2023-05-12T11:05:40.258Z,101224.91
2023-05-12T11:08:09.747Z,101221.38
2023-05-12T11:10:36.144Z,101231.94
2023-05-12T11:13:02.512Z,101233.84
2023-05-12T11:15:28.778Z,101227.38
2023-05-12T11:17:55.111Z,101219.28
2023-05-12T11:20:21.362Z,101220.34
2023-05-12T11:22:47.663Z,101213.03
2023-05-12T11:25:13.939Z,101213.03
2023-05-12T11:27:40.248Z,101216.56
2023-05-12T11:30:06.476Z,101213.03
2023-05-12T11:32:33.706Z,101215.50
2023-05-12T11:34:59.994Z,101217.41
2023-05-12T11:37:26.247Z,101210.09
2023-05-12T11:39:52.500Z,101207.41
2023-05-12T11:42:20.229Z,101224.44
2023-05-12T11:44:47.380Z,101221.75
2023-05-12T11:47:13.632Z,101217.41
2023-05-12T11:49:40.457Z,101222.53
2023-05-12T11:52:06.732Z,101219.03
2023-05-12T11:54:32.947Z,101223.38
2023-05-12T11:56:59.218Z,101219.84
2023-05-12T11:59:25.724Z,101224.22
2023-05-12T12:01:53.492Z,101215.06
2023-05-12T12:04:19.807Z,101219.63
2023-05-12T12:06:46.103Z,101216.91
2023-05-12T12:09:12.370Z,101206.13
2023-05-12T12:11:38.650Z,101216.91
2023-05-12T12:14:06.185Z,101212.56
2023-05-12T12:16:32.721Z,101217.16
2023-05-12T12:18:59.231Z,101225.25
2023-05-12T12:21:25.686Z,101221.50
2023-05-12T12:23:52.043Z,101223.38
2023-05-12T12:26:18.341Z,101211.75
2023-05-12T12:28:46.233Z,101219.28
2023-05-12T12:31:13.882Z,101210.72
2023-05-12T12:33:40.178Z,101219.03
2023-05-12T12:36:06.513Z,101217.97
2023-05-12T12:38:32.771Z,101216.91
2023-05-12T12:40:59.050Z,101213.41
2023-05-12T12:43:25.715Z,101212.34
2023-05-12T12:45:51.948Z,101225.00
2023-05-12T12:48:18.220Z,101219.63
2023-05-12T12:50:45.191Z,101222.91
2023-05-12T12:53:11.465Z,101210.72
2023-05-12T12:55:37.719Z,101216.69
2023-05-12T12:58:03.959Z,101218.59
2023-05-12T13:00:30.275Z,101217.53
2023-05-12T13:02:56.935Z,101219.38
2023-05-12T13:05:23.461Z,101224.78
2023-05-12T13:07:50.341Z,101216.69
2023-05-12T13:10:16.593Z,101217.53
2023-05-12T13:12:42.890Z,101214.81
2023-05-12T13:15:09.145Z,101219.38
2023-05-12T13:17:35.462Z,101217.53
2023-05-12T13:20:01.752Z,101221.84
2023-05-12T13:22:28.252Z,101216.47
2023-05-12T13:24:54.552Z,101217.28
2023-05-12T13:27:22.944Z,101220.00
2023-05-12T13:29:50.536Z,101217.28
2023-05-12T13:32:16.843Z,101224.56
2023-05-12T13:34:43.160Z,101222.69
2023-05-12T13:37:09.428Z,101222.69
2023-05-12T13:39:35.662Z,101214.59
2023-05-12T13:42:02.029Z,101202.97
2023-05-12T13:44:28.382Z,101203.78
2023-05-12T13:46:54.604Z,101205.44
2023-05-12T13:49:21.775Z,101204.59
2023-05-12T13:51:48.020Z,101213.53
2023-05-12T13:54:14.287Z,101204.38
2023-05-12T13:56:42.018Z,101206.22
2023-05-12T13:59:08.252Z,101201.66
2023-05-12T14:01:34.574Z,101196.25
2023-05-12T14:04:00.917Z,101195.44
2023-05-12T14:06:27.171Z,101191.69
2023-05-12T14:08:53.435Z,101196.25
2023-05-12T14:11:20.047Z,101204.13
2023-05-12T14:13:46.407Z,101197.91
2023-05-12T14:16:12.797Z,101199.56
2023-05-12T14:18:39.957Z,101187.94
2023-05-12T14:21:07.620Z,101197.91
2023-05-12T14:23:33.839Z,101188.16
2023-05-12T14:26:00.058Z,101198.97
2023-05-12T14:28:27.087Z,101182.75
2023-05-12T14:30:53.350Z,101197.09
2023-05-12T14:33:19.797Z,101202.50
2023-05-12T14:35:55.846Z,101193.56
2023-05-12T14:38:29.916Z,101208.94
2023-05-12T14:40:56.251Z,101207.06
2023-05-12T14:43:22.487Z,101207.06
2023-05-12T14:45:48.789Z,101213.88
2023-05-12T14:48:15.029Z,101204.97
2023-05-12T14:50:41.267Z,101201.19
2023-05-12T14:53:08.281Z,101207.06
2023-05-12T14:55:34.498Z,101199.56
2023-05-12T14:58:01.282Z,101203.31
2023-05-12T15:00:27.736Z,101203.91
2023-05-12T15:02:54.078Z,101207.41
2023-05-12T15:05:20.614Z,101206.59
2023-05-12T15:07:47.046Z,101198.50
2023-05-12T15:10:13.912Z,101192.28
2023-05-12T15:12:40.150Z,101196.88
2023-05-12T15:15:07.345Z,101198.50
2023-05-12T15:17:33.723Z,101210.94
2023-05-12T15:20:00.042Z,101207.41
2023-05-12T15:22:26.294Z,101211.78
2023-05-12T15:24:53.668Z,101214.47
2023-05-12T15:27:19.907Z,101214.22
2023-05-12T15:29:46.148Z,101223.16
2023-05-12T15:32:12.405Z,101217.75
2023-05-12T15:34:38.658Z,101218.56
2023-05-12T15:37:04.884Z,101202.38
2023-05-12T15:39:31.854Z,101213.19
2023-05-12T15:41:58.124Z,101214.81
2023-05-12T15:44:24.364Z,101210.47
2023-05-12T15:46:50.706Z,101213.97
2023-05-12T15:49:16.998Z,101213.19
2023-05-12T15:51:43.345Z,101217.50
2023-05-12T15:54:09.985Z,101214.81
2023-05-12T15:56:36.523Z,101212.94
2023-05-12T15:59:02.807Z,101209.19
2023-05-12T16:01:30.612Z,101215.38
2023-05-12T16:03:56.944Z,101205.41
2023-05-12T16:06:23.324Z,101210.81
2023-05-12T16:08:49.578Z,101195.44
2023-05-12T16:11:16.406Z,101203.56
2023-05-12T16:13:42.668Z,101205.19
2023-05-12T16:16:08.983Z,101207.88
2023-05-12T16:18:35.683Z,101209.53
2023-05-12T16:21:02.451Z,101207.66
2023-05-12T16:23:28.749Z,101194.38
2023-05-12T16:25:55.616Z,101201.44
2023-05-12T16:28:22.262Z,101200.34
2023-05-12T16:30:48.574Z,101205.75
2023-05-12T16:33:14.891Z,101203.91
2023-05-12T16:35:41.244Z,101201.19
2023-05-12T16:38:07.511Z,101193.94
2023-05-12T16:40:33.802Z,101204.72
2023-05-12T16:43:00.050Z,101203.91
2023-05-12T16:45:26.529Z,101200.97
2023-05-12T16:47:52.829Z,101209.88
2023-05-12T16:50:19.241Z,101209.88
2023-05-12T16:52:45.811Z,101205.31
2023-05-12T16:55:16.285Z,101206.38
2023-05-12T16:57:43.508Z,101205.31
2023-05-12T17:00:09.899Z,101206.13
2023-05-12T17:02:36.263Z,101212.34
2023-05-12T17:05:02.554Z,101212.34
2023-05-12T17:07:28.848Z,101214.00
2023-05-12T17:09:55.088Z,101212.09
2023-05-12T17:12:21.336Z,101211.31
2023-05-12T17:14:59.428Z,101212.94
2023-05-12T17:17:34.300Z,101219.16
2023-05-12T17:20:00.903Z,101217.28
2023-05-12T17:22:27.310Z,101219.97
2023-05-12T17:24:53.568Z,101219.97
2023-05-12T17:27:23.580Z,101220.81
2023-05-12T17:29:49.915Z,101229.72
2023-05-12T17:32:16.222Z,101229.72
2023-05-12T17:34:42.505Z,101227.00
2023-05-12T17:37:08.740Z,101229.72
2023-05-12T17:39:36.325Z,101236.19
2023-05-12T17:42:02.580Z,101243.22
2023-05-12T17:44:30.196Z,101240.53
2023-05-12T17:46:57.151Z,101243.00
2023-05-12T17:49:23.827Z,101244.06
2023-05-12T17:51:50.062Z,101242.41
2023-05-12T17:54:16.340Z,101249.47
2023-05-12T17:56:42.691Z,101245.69
2023-05-12T17:59:09.156Z,101256.50
2023-05-12T18:01:35.495Z,101253.00
2023-05-12T18:04:01.859Z,101256.72
2023-05-12T18:06:28.127Z,101262.97
2023-05-12T18:08:55.362Z,101269.19
2023-05-12T18:11:21.591Z,101261.91
2023-05-12T18:13:47.857Z,101264.59
2023-05-12T18:16:25.230Z,101264.59
2023-05-12T18:18:54.604Z,101260.03
2023-05-12T18:21:21.526Z,101266.22
2023-05-12T18:23:47.784Z,101264.59
2023-05-12T18:26:14.556Z,101270.59
2023-05-12T18:28:42.538Z,101268.94
2023-05-12T18:31:15.838Z,101275.16
2023-05-12T18:33:42.644Z,101276.00
2023-05-12T18:36:09.455Z,101281.41
2023-05-12T18:38:35.791Z,101285.97
2023-05-12T18:41:02.223Z,101283.28
2023-05-12T18:43:28.617Z,101287.84
2023-05-12T18:45:55.403Z,101289.50
2023-05-12T18:48:21.625Z,101294.91
2023-05-12T18:50:47.901Z,101300.31
2023-05-12T18:53:14.117Z,101301.13
2023-05-12T18:55:40.382Z,101303.03
2023-05-12T18:58:06.608Z,101306.75
2023-05-12T19:00:32.860Z,101304.88
2023-05-12T19:02:59.568Z,101313.81
2023-05-12T19:05:25.932Z,101312.16
2023-05-12T19:07:52.198Z,101318.38
2023-05-12T19:10:19.877Z,101316.75
2023-05-12T19:12:46.113Z,101319.47
2023-05-12T19:15:12.354Z,101325.66
2023-05-12T19:17:38.837Z,101325.66
2023-05-12T19:20:05.131Z,101326.50
2023-05-12T19:22:32.254Z,101326.50
2023-05-12T19:24:58.475Z,101324.03
2023-05-12T19:27:24.814Z,101332.97
2023-05-12T19:29:51.128Z,101327.56
2023-05-12T19:32:17.446Z,101332.97
2023-05-12T19:34:43.756Z,101332.97
2023-05-12T19:37:19.983Z,101339.16
2023-05-12T19:39:46.244Z,101334.81
2023-05-12T19:42:12.525Z,101342.13
2023-05-12T19:44:38.756Z,101339.44
2023-05-12T19:47:05.171Z,101340.22
2023-05-12T19:49:31.446Z,101348.34
2023-05-12T19:51:57.737Z,101346.47
2023-05-12T19:54:23.978Z,101349.41
2023-05-12T19:56:50.235Z,101349.16
2023-05-12T19:59:16.494Z,101353.72
2023-05-12T20:01:42.775Z,101354.56
2023-05-12T20:04:09.057Z,101344.56
2023-05-12T20:06:35.301Z,101348.34
2023-05-12T20:09:01.518Z,101359.97
2023-05-12T20:11:27.769Z,101351.88
2023-05-12T20:13:54.060Z,101358.34
2023-05-12T20:16:20.523Z,101346.69
2023-05-12T20:18:48.710Z,101353.72
2023-05-12T20:21:14.957Z,101360.19
2023-05-12T20:23:41.199Z,101360.78
2023-05-12T20:26:07.520Z,101358.34
2023-05-12T20:28:33.809Z,101359.13
2023-05-12T20:31:01.321Z,101358.34
2023-05-12T20:33:28.830Z,101362.91
2023-05-12T20:35:56.449Z,101362.91
2023-05-12T20:38:22.690Z,101364.75
2023-05-12T20:40:48.944Z,101361.25
2023-05-12T20:43:15.177Z,101362.91
2023-05-12T20:45:41.577Z,101369.13
2023-05-12T20:48:08.655Z,101369.59
2023-05-12T20:50:34.983Z,101374.53
2023-05-12T20:53:02.657Z,101371.00
2023-05-12T20:55:28.957Z,101372.06
2023-05-12T20:57:55.264Z,101372.88
2023-05-12T21:00:21.519Z,101376.63
2023-05-12T21:02:47.803Z,101376.41
2023-05-12T21:05:14.449Z,101383.66
2023-05-12T21:07:40.731Z,101378.75
2023-05-12T21:10:07.010Z,101381.19
2023-05-12T21:12:33.258Z,101382.25
2023-05-12T21:14:59.523Z,101378.50
2023-05-12T21:17:25.787Z,101390.38
2023-05-12T21:19:52.605Z,101383.09
2023-05-12T21:22:18.870Z,101386.88
2023-05-12T21:24:45.123Z,101389.06
2023-05-12T21:27:11.348Z,101388.72
2023-05-12T21:29:37.624Z,101394.97
2023-05-12T21:32:03.988Z,101390.38
2023-05-12T21:34:30.673Z,101390.38
2023-05-12T21:36:56.938Z,101394.13
2023-05-12T21:39:26.136Z,101397.66
2023-05-12T21:41:52.383Z,101394.34
2023-05-12T21:44:18.628Z,101396.81
2023-05-12T21:46:45.099Z,101403.53
2023-05-12T21:49:12.719Z,101397.66
2023-05-12T21:51:38.949Z,101397.06
2023-05-12T21:54:05.198Z,101403.06
2023-05-12T21:56:31.437Z,101398.69
2023-05-12T21:58:57.690Z,101402.47
2023-05-12T22:01:24.005Z,101410.78
2023-05-12T22:03:51.229Z,101402.91
2023-05-12T22:06:17.600Z,101407.03
2023-05-12T22:08:43.856Z,101411.63
2023-05-12T22:11:10.103Z,101411.63
2023-05-12T22:13:38.456Z,101409.16
2023-05-12T22:16:04.914Z,101408.91
2023-05-12T22:18:31.759Z,101403.53
2023-05-12T22:20:58.016Z,101410.78
2023-05-12T22:23:24.283Z,101410.44
2023-05-12T22:25:50.613Z,101418.31
2023-05-12T22:28:16.892Z,101411.00
2023-05-12T22:30:43.286Z,101421.00
2023-05-12T22:33:10.088Z,101419.13
2023-05-12T22:35:36.573Z,101411.28
2023-05-12T22:38:03.159Z,101416.91
2023-05-12T22:40:29.406Z,101426.41
2023-05-12T22:42:55.695Z,101422.06
2023-05-12T22:45:22.170Z,101422.28
2023-05-12T22:47:51.831Z,101423.94
2023-05-12T22:50:18.242Z,101423.94
2023-05-12T22:52:44.580Z,101417.94
2023-05-12T22:55:12.172Z,101424.78
2023-05-12T22:57:38.433Z,101417.69
2023-05-12T23:00:04.686Z,101416.91
2023-05-12T23:02:31.035Z,101414.19
2023-05-12T23:04:57.314Z,101417.94
2023-05-12T23:07:23.568Z,101423.31
2023-05-12T23:09:49.848Z,101429.56
2023-05-12T23:12:16.121Z,101428.72
2023-05-12T23:14:42.384Z,101426.03
2023-05-12T23:17:08.733Z,101427.91
2023-05-12T23:19:36.311Z,101428.72
2023-05-12T23:22:02.602Z,101425.22
2023-05-12T23:24:28.858Z,101419.81
2023-05-12T23:26:55.089Z,101416.28
2023-05-12T23:29:21.315Z,101419.81
2023-05-12T23:31:47.636Z,101426.28
2023-05-12T23:34:13.930Z,101419.22
2023-05-12T23:36:40.317Z,101421.47
2023-05-12T23:39:06.604Z,101426.28
2023-05-12T23:41:32.849Z,101436.81
2023-05-12T23:43:59.122Z,101434.13
2023-05-12T23:46:26.067Z,101427.91
2023-05-12T23:48:52.429Z,101425.44
2023-05-12T23:51:23.910Z,101432.72
2023-05-12T23:53:51.418Z,101427.09
2023-05-12T23:56:17.717Z,101428.16
2023-05-12T23:58:44.512Z,101436.03
